sensor_id;sensor_type;location;lat;lon;timestamp;P1;durP1;ratioP1;P2;durP2;ratioP2
813;SDS011;389;48.710;9.392;2024-03-22T00:01:46;17.07;;;12.93;;
813;SDS011;389;48.710;9.392;2024-03-22T00:04:12;22.60;;;14.30;;
813;SDS011;389;48.710;9.392;2024-03-22T00:06:39;23.77;;;15.20;;
813;SDS011;389;48.710;9.392;2024-03-22T00:09:05;19.00;;;13.10;;
813;SDS011;389;48.710;9.392;2024-03-22T00:11:31;22.27;;;13.70;;
813;SDS011;389;48.710;9.392;2024-03-22T00:13:57;19.37;;;12.80;;
813;SDS011;389;48.710;9.392;2024-03-22T00:16:22;17.87;;;12.37;;
813;SDS011;389;48.710;9.392;2024-03-22T00:18:48;20.27;;;13.20;;
813;SDS011;389;48.710;9.392;2024-03-22T00:21:14;24.17;;;14.17;;
813;SDS011;389;48.710;9.392;2024-03-22T00:23:39;22.37;;;14.93;;
813;SDS011;389;48.710;9.392;2024-03-22T00:26:05;28.00;;;15.03;;
813;SDS011;389;48.710;9.392;2024-03-22T00:28:30;22.23;;;14.90;;
813;SDS011;389;48.710;9.392;2024-03-22T00:30:56;22.03;;;14.47;;
813;SDS011;389;48.710;9.392;2024-03-22T00:33:21;26.27;;;16.23;;
813;SDS011;389;48.710;9.392;2024-03-22T00:35:47;25.47;;;15.63;;
813;SDS011;389;48.710;9.392;2024-03-22T00:38:13;25.90;;;15.30;;
813;SDS011;389;48.710;9.392;2024-03-22T00:40:38;23.30;;;15.10;;
813;SDS011;389;48.710;9.392;2024-03-22T00:43:04;24.60;;;14.77;;
813;SDS011;389;48.710;9.392;2024-03-22T00:45:29;25.47;;;15.03;;
813;SDS011;389;48.710;9.392;2024-03-22T00:47:55;22.77;;;14.10;;
813;SDS011;389;48.710;9.392;2024-03-22T00:50:20;26.40;;;13.90;;
813;SDS011;389;48.710;9.392;2024-03-22T00:52:46;20.00;;;13.90;;
813;SDS011;389;48.710;9.392;2024-03-22T00:55:11;20.67;;;13.23;;
813;SDS011;389;48.710;9.392;2024-03-22T00:57:37;21.97;;;13.87;;
813;SDS011;389;48.710;9.392;2024-03-22T01:00:02;21.27;;;13.90;;
813;SDS011;389;48.710;9.392;2024-03-22T01:02:29;22.73;;;14.27;;
813;SDS011;389;48.710;9.392;2024-03-22T01:04:55;21.93;;;13.17;;
813;SDS011;389;48.710;9.392;2024-03-22T01:07:20;23.00;;;13.30;;
813;SDS011;389;48.710;9.392;2024-03-22T01:09:46;22.63;;;14.63;;
813;SDS011;389;48.710;9.392;2024-03-22T01:12:11;21.23;;;13.30;;
813;SDS011;389;48.710;9.392;2024-03-22T01:14:37;28.17;;;14.80;;
813;SDS011;389;48.710;9.392;2024-03-22T01:17:03;21.27;;;13.00;;
813;SDS011;389;48.710;9.392;2024-03-22T01:19:28;21.17;;;13.17;;
813;SDS011;389;48.710;9.392;2024-03-22T01:21:54;22.93;;;14.60;;
813;SDS011;389;48.710;9.392;2024-03-22T01:24:19;23.70;;;13.73;;
813;SDS011;389;48.710;9.392;2024-03-22T01:26:45;24.30;;;13.93;;
813;SDS011;389;48.710;9.392;2024-03-22T01:29:10;21.83;;;13.83;;
813;SDS011;389;48.710;9.392;2024-03-22T01:31:37;21.93;;;13.07;;
813;SDS011;389;48.710;9.392;2024-03-22T01:34:02;24.10;;;14.60;;
813;SDS011;389;48.710;9.392;2024-03-22T01:36:28;23.70;;;14.93;;
813;SDS011;389;48.710;9.392;2024-03-22T01:38:53;21.13;;;14.73;;
813;SDS011;389;48.710;9.392;2024-03-22T01:41:19;21.27;;;13.80;;
813;SDS011;389;48.710;9.392;2024-03-22T01:43:45;23.13;;;13.93;;
813;SDS011;389;48.710;9.392;2024-03-22T01:46:10;25.03;;;14.87;;
813;SDS011;389;48.710;9.392;2024-03-22T01:48:36;24.40;;;13.87;;
813;SDS011;389;48.710;9.392;2024-03-22T01:51:02;24.20;;;14.57;;
813;SDS011;389;48.710;9.392;2024-03-22T01:53:28;24.13;;;14.70;;
813;SDS011;389;48.710;9.392;2024-03-22T01:55:54;24.70;;;15.13;;
813;SDS011;389;48.710;9.392;2024-03-22T01:58:19;24.17;;;14.77;;
813;SDS011;389;48.710;9.392;2024-03-22T02:00:46;23.27;;;15.70;;
813;SDS011;389;48.710;9.392;2024-03-22T02:03:12;22.27;;;14.20;;
813;SDS011;389;48.710;9.392;2024-03-22T02:05:38;25.17;;;15.10;;
813;SDS011;389;48.710;9.392;2024-03-22T02:08:03;24.07;;;14.87;;
813;SDS011;389;48.710;9.392;2024-03-22T02:10:29;30.00;;;16.37;;
813;SDS011;389;48.710;9.392;2024-03-22T02:12:55;24.67;;;15.20;;
813;SDS011;389;48.710;9.392;2024-03-22T02:15:21;24.93;;;14.93;;
813;SDS011;389;48.710;9.392;2024-03-22T02:17:47;27.20;;;14.97;;
813;SDS011;389;48.710;9.392;2024-03-22T02:20:12;23.00;;;14.83;;
813;SDS011;389;48.710;9.392;2024-03-22T02:22:38;25.93;;;14.30;;
813;SDS011;389;48.710;9.392;2024-03-22T02:25:04;25.20;;;15.37;;
813;SDS011;389;48.710;9.392;2024-03-22T02:27:30;26.73;;;15.60;;
813;SDS011;389;48.710;9.392;2024-03-22T02:29:55;24.17;;;13.63;;
813;SDS011;389;48.710;9.392;2024-03-22T02:32:21;28.70;;;15.30;;
813;SDS011;389;48.710;9.392;2024-03-22T02:34:47;22.43;;;14.60;;
813;SDS011;389;48.710;9.392;2024-03-22T02:37:13;25.17;;;15.30;;
813;SDS011;389;48.710;9.392;2024-03-22T02:39:39;27.63;;;15.03;;
813;SDS011;389;48.710;9.392;2024-03-22T02:42:05;25.00;;;15.37;;
813;SDS011;389;48.710;9.392;2024-03-22T02:44:30;31.07;;;15.80;;
813;SDS011;389;48.710;9.392;2024-03-22T02:46:56;24.30;;;15.40;;
813;SDS011;389;48.710;9.392;2024-03-22T02:49:22;27.47;;;16.40;;
813;SDS011;389;48.710;9.392;2024-03-22T02:51:47;26.13;;;16.07;;
813;SDS011;389;48.710;9.392;2024-03-22T02:54:13;26.57;;;15.80;;
813;SDS011;389;48.710;9.392;2024-03-22T02:56:39;31.10;;;16.80;;
813;SDS011;389;48.710;9.392;2024-03-22T02:59:04;27.47;;;16.00;;
813;SDS011;389;48.710;9.392;2024-03-22T03:01:30;31.30;;;16.30;;
813;SDS011;389;48.710;9.392;2024-03-22T03:03:55;33.17;;;16.07;;
813;SDS011;389;48.710;9.392;2024-03-22T03:06:21;28.50;;;16.70;;
813;SDS011;389;48.710;9.392;2024-03-22T03:08:46;32.37;;;16.87;;
813;SDS011;389;48.710;9.392;2024-03-22T03:11:13;27.37;;;16.13;;
813;SDS011;389;48.710;9.392;2024-03-22T03:13:39;30.90;;;16.70;;
813;SDS011;389;48.710;9.392;2024-03-22T03:16:05;27.27;;;15.50;;
813;SDS011;389;48.710;9.392;2024-03-22T03:18:31;28.73;;;16.27;;
813;SDS011;389;48.710;9.392;2024-03-22T03:20:56;27.27;;;16.20;;
813;SDS011;389;48.710;9.392;2024-03-22T03:23:22;27.77;;;15.97;;
813;SDS011;389;48.710;9.392;2024-03-22T03:25:47;27.63;;;16.80;;
813;SDS011;389;48.710;9.392;2024-03-22T03:28:13;32.73;;;16.97;;
813;SDS011;389;48.710;9.392;2024-03-22T03:30:39;29.17;;;16.63;;
813;SDS011;389;48.710;9.392;2024-03-22T03:33:04;31.00;;;16.43;;
813;SDS011;389;48.710;9.392;2024-03-22T03:35:30;30.40;;;16.47;;
813;SDS011;389;48.710;9.392;2024-03-22T03:37:56;26.97;;;16.30;;
813;SDS011;389;48.710;9.392;2024-03-22T03:40:21;33.23;;;17.20;;
813;SDS011;389;48.710;9.392;2024-03-22T03:42:50;28.70;;;16.20;;
813;SDS011;389;48.710;9.392;2024-03-22T03:45:16;33.27;;;16.90;;
813;SDS011;389;48.710;9.392;2024-03-22T03:47:41;28.30;;;17.60;;
813;SDS011;389;48.710;9.392;2024-03-22T03:50:07;31.83;;;17.77;;
813;SDS011;389;48.710;9.392;2024-03-22T03:52:33;32.37;;;18.03;;
813;SDS011;389;48.710;9.392;2024-03-22T03:54:58;34.23;;;17.80;;
813;SDS011;389;48.710;9.392;2024-03-22T03:57:24;31.07;;;17.23;;
813;SDS011;389;48.710;9.392;2024-03-22T03:59:49;38.53;;;18.30;;
813;SDS011;389;48.710;9.392;2024-03-22T04:02:15;30.60;;;18.07;;
813;SDS011;389;48.710;9.392;2024-03-22T04:04:40;31.40;;;18.10;;
813;SDS011;389;48.710;9.392;2024-03-22T04:07:06;31.93;;;17.43;;
813;SDS011;389;48.710;9.392;2024-03-22T04:09:32;29.90;;;17.67;;
813;SDS011;389;48.710;9.392;2024-03-22T04:11:58;35.90;;;16.97;;
813;SDS011;389;48.710;9.392;2024-03-22T04:14:24;31.83;;;17.50;;
813;SDS011;389;48.710;9.392;2024-03-22T04:16:50;31.67;;;17.57;;
813;SDS011;389;48.710;9.392;2024-03-22T04:19:16;33.27;;;17.30;;
813;SDS011;389;48.710;9.392;2024-03-22T04:21:42;30.77;;;17.37;;
813;SDS011;389;48.710;9.392;2024-03-22T04:24:07;34.60;;;17.90;;
813;SDS011;389;48.710;9.392;2024-03-22T04:26:33;36.43;;;18.33;;
813;SDS011;389;48.710;9.392;2024-03-22T04:28:58;38.23;;;17.73;;
813;SDS011;389;48.710;9.392;2024-03-22T04:31:24;31.53;;;16.83;;
813;SDS011;389;48.710;9.392;2024-03-22T04:33:50;34.90;;;16.93;;
813;SDS011;389;48.710;9.392;2024-03-22T04:36:15;33.43;;;18.53;;
813;SDS011;389;48.710;9.392;2024-03-22T04:38:41;37.83;;;17.57;;
813;SDS011;389;48.710;9.392;2024-03-22T04:41:06;34.10;;;18.40;;
813;SDS011;389;48.710;9.392;2024-03-22T04:43:32;35.20;;;19.17;;
813;SDS011;389;48.710;9.392;2024-03-22T04:45:57;37.87;;;17.77;;
813;SDS011;389;48.710;9.392;2024-03-22T04:48:23;29.60;;;16.63;;
813;SDS011;389;48.710;9.392;2024-03-22T04:50:49;30.60;;;17.97;;
813;SDS011;389;48.710;9.392;2024-03-22T04:53:16;29.83;;;16.30;;
813;SDS011;389;48.710;9.392;2024-03-22T04:55:43;37.67;;;16.70;;
813;SDS011;389;48.710;9.392;2024-03-22T04:58:19;34.30;;;18.50;;
813;SDS011;389;48.710;9.392;2024-03-22T05:00:46;31.53;;;17.03;;
813;SDS011;389;48.710;9.392;2024-03-22T05:03:20;38.33;;;18.43;;
813;SDS011;389;48.710;9.392;2024-03-22T05:05:46;36.80;;;18.00;;
813;SDS011;389;48.710;9.392;2024-03-22T05:08:11;38.37;;;18.47;;
813;SDS011;389;48.710;9.392;2024-03-22T05:10:37;36.67;;;18.47;;
813;SDS011;389;48.710;9.392;2024-03-22T05:13:03;45.90;;;22.17;;
813;SDS011;389;48.710;9.392;2024-03-22T05:15:28;32.87;;;19.47;;
813;SDS011;389;48.710;9.392;2024-03-22T05:17:56;35.97;;;19.50;;
813;SDS011;389;48.710;9.392;2024-03-22T05:20:22;37.10;;;18.40;;
813;SDS011;389;48.710;9.392;2024-03-22T05:22:48;34.10;;;18.33;;
813;SDS011;389;48.710;9.392;2024-03-22T05:25:14;33.80;;;18.37;;
813;SDS011;389;48.710;9.392;2024-03-22T05:27:40;35.50;;;19.07;;
813;SDS011;389;48.710;9.392;2024-03-22T05:30:07;31.57;;;18.60;;
813;SDS011;389;48.710;9.392;2024-03-22T05:32:36;33.47;;;19.13;;
813;SDS011;389;48.710;9.392;2024-03-22T05:35:01;36.30;;;18.57;;
813;SDS011;389;48.710;9.392;2024-03-22T05:37:27;38.90;;;19.90;;
813;SDS011;389;48.710;9.392;2024-03-22T05:39:53;38.10;;;20.83;;
813;SDS011;389;48.710;9.392;2024-03-22T05:42:19;34.10;;;19.50;;
813;SDS011;389;48.710;9.392;2024-03-22T05:44:45;39.80;;;19.47;;
813;SDS011;389;48.710;9.392;2024-03-22T05:47:10;28.80;;;18.47;;
813;SDS011;389;48.710;9.392;2024-03-22T05:49:36;31.67;;;18.37;;
813;SDS011;389;48.710;9.392;2024-03-22T05:52:01;34.47;;;17.67;;
813;SDS011;389;48.710;9.392;2024-03-22T05:54:27;33.77;;;19.53;;
813;SDS011;389;48.710;9.392;2024-03-22T05:56:53;33.43;;;19.90;;
813;SDS011;389;48.710;9.392;2024-03-22T05:59:20;32.70;;;18.97;;
813;SDS011;389;48.710;9.392;2024-03-22T06:01:45;37.40;;;18.97;;
813;SDS011;389;48.710;9.392;2024-03-22T06:04:11;35.83;;;18.47;;
813;SDS011;389;48.710;9.392;2024-03-22T06:06:37;32.60;;;17.77;;
813;SDS011;389;48.710;9.392;2024-03-22T06:09:03;32.87;;;17.80;;
813;SDS011;389;48.710;9.392;2024-03-22T06:11:29;34.63;;;18.33;;
813;SDS011;389;48.710;9.392;2024-03-22T06:13:55;37.50;;;18.30;;
813;SDS011;389;48.710;9.392;2024-03-22T06:16:21;33.07;;;17.87;;
813;SDS011;389;48.710;9.392;2024-03-22T06:18:46;33.87;;;18.23;;
813;SDS011;389;48.710;9.392;2024-03-22T06:21:13;29.13;;;18.67;;
813;SDS011;389;48.710;9.392;2024-03-22T06:23:39;34.03;;;18.17;;
813;SDS011;389;48.710;9.392;2024-03-22T06:26:06;37.17;;;18.20;;
813;SDS011;389;48.710;9.392;2024-03-22T06:28:32;37.23;;;18.80;;
813;SDS011;389;48.710;9.392;2024-03-22T06:30:57;29.47;;;17.77;;
813;SDS011;389;48.710;9.392;2024-03-22T06:33:23;34.80;;;19.63;;
813;SDS011;389;48.710;9.392;2024-03-22T06:35:49;28.13;;;18.07;;
813;SDS011;389;48.710;9.392;2024-03-22T06:38:14;27.10;;;15.67;;
813;SDS011;389;48.710;9.392;2024-03-22T06:43:37;27.43;;;16.03;;
813;SDS011;389;48.710;9.392;2024-03-22T06:46:17;29.30;;;17.17;;
813;SDS011;389;48.710;9.392;2024-03-22T06:48:57;35.87;;;17.57;;
813;SDS011;389;48.710;9.392;2024-03-22T06:51:23;43.70;;;20.07;;
813;SDS011;389;48.710;9.392;2024-03-22T06:53:49;28.00;;;17.80;;
813;SDS011;389;48.710;9.392;2024-03-22T06:56:14;34.07;;;19.90;;
813;SDS011;389;48.710;9.392;2024-03-22T06:58:40;28.03;;;17.20;;
813;SDS011;389;48.710;9.392;2024-03-22T07:01:06;26.20;;;16.37;;
813;SDS011;389;48.710;9.392;2024-03-22T07:03:31;29.30;;;17.60;;
813;SDS011;389;48.710;9.392;2024-03-22T07:05:57;30.77;;;16.87;;
813;SDS011;389;48.710;9.392;2024-03-22T07:08:23;27.90;;;17.00;;
813;SDS011;389;48.710;9.392;2024-03-22T07:10:50;35.90;;;16.83;;
813;SDS011;389;48.710;9.392;2024-03-22T07:13:16;30.73;;;17.50;;
813;SDS011;389;48.710;9.392;2024-03-22T07:15:41;26.90;;;16.63;;
813;SDS011;389;48.710;9.392;2024-03-22T07:18:09;34.33;;;17.43;;
813;SDS011;389;48.710;9.392;2024-03-22T07:20:35;25.60;;;15.70;;
813;SDS011;389;48.710;9.392;2024-03-22T07:23:01;33.93;;;16.73;;
813;SDS011;389;48.710;9.392;2024-03-22T07:25:26;27.20;;;15.67;;
813;SDS011;389;48.710;9.392;2024-03-22T07:27:52;30.37;;;16.40;;
813;SDS011;389;48.710;9.392;2024-03-22T07:30:17;22.37;;;14.03;;
813;SDS011;389;48.710;9.392;2024-03-22T07:32:45;24.10;;;15.17;;
813;SDS011;389;48.710;9.392;2024-03-22T07:35:12;26.17;;;16.60;;
813;SDS011;389;48.710;9.392;2024-03-22T07:37:38;24.63;;;16.17;;
813;SDS011;389;48.710;9.392;2024-03-22T07:40:03;29.30;;;15.50;;
813;SDS011;389;48.710;9.392;2024-03-22T07:42:30;23.20;;;14.50;;
813;SDS011;389;48.710;9.392;2024-03-22T07:44:56;24.23;;;14.23;;
813;SDS011;389;48.710;9.392;2024-03-22T07:47:21;22.67;;;14.33;;
813;SDS011;389;48.710;9.392;2024-03-22T07:49:47;21.57;;;13.60;;
813;SDS011;389;48.710;9.392;2024-03-22T07:52:12;20.87;;;13.90;;
813;SDS011;389;48.710;9.392;2024-03-22T07:54:38;18.87;;;13.57;;
813;SDS011;389;48.710;9.392;2024-03-22T07:57:03;19.20;;;14.10;;
813;SDS011;389;48.710;9.392;2024-03-22T07:59:29;17.83;;;12.93;;
813;SDS011;389;48.710;9.392;2024-03-22T08:01:55;20.70;;;14.30;;
813;SDS011;389;48.710;9.392;2024-03-22T08:04:22;22.13;;;13.90;;
813;SDS011;389;48.710;9.392;2024-03-22T08:06:47;22.50;;;14.77;;
813;SDS011;389;48.710;9.392;2024-03-22T08:09:15;18.43;;;12.83;;
813;SDS011;389;48.710;9.392;2024-03-22T08:11:41;27.27;;;13.77;;
813;SDS011;389;48.710;9.392;2024-03-22T08:14:07;19.80;;;13.70;;
813;SDS011;389;48.710;9.392;2024-03-22T08:16:32;19.33;;;13.10;;
813;SDS011;389;48.710;9.392;2024-03-22T08:18:58;22.20;;;14.07;;
813;SDS011;389;48.710;9.392;2024-03-22T08:21:23;20.73;;;14.07;;
813;SDS011;389;48.710;9.392;2024-03-22T08:23:52;18.83;;;13.67;;
813;SDS011;389;48.710;9.392;2024-03-22T08:26:18;18.57;;;14.13;;
813;SDS011;389;48.710;9.392;2024-03-22T08:28:45;19.30;;;13.63;;
813;SDS011;389;48.710;9.392;2024-03-22T08:31:11;17.20;;;13.90;;
813;SDS011;389;48.710;9.392;2024-03-22T08:33:37;19.93;;;13.13;;
813;SDS011;389;48.710;9.392;2024-03-22T08:36:03;19.87;;;13.13;;
813;SDS011;389;48.710;9.392;2024-03-22T08:38:28;16.63;;;12.50;;
813;SDS011;389;48.710;9.392;2024-03-22T08:40:54;21.03;;;13.70;;
813;SDS011;389;48.710;9.392;2024-03-22T08:43:19;19.60;;;14.93;;
813;SDS011;389;48.710;9.392;2024-03-22T08:45:47;17.13;;;13.20;;
813;SDS011;389;48.710;9.392;2024-03-22T08:48:13;18.17;;;13.00;;
813;SDS011;389;48.710;9.392;2024-03-22T08:50:38;18.20;;;13.00;;
813;SDS011;389;48.710;9.392;2024-03-22T08:53:07;17.93;;;13.10;;
813;SDS011;389;48.710;9.392;2024-03-22T08:55:32;16.40;;;12.70;;
813;SDS011;389;48.710;9.392;2024-03-22T08:57:58;18.23;;;12.93;;
813;SDS011;389;48.710;9.392;2024-03-22T09:00:23;17.60;;;12.73;;
813;SDS011;389;48.710;9.392;2024-03-22T09:02:49;17.73;;;11.87;;
813;SDS011;389;48.710;9.392;2024-03-22T09:05:14;14.93;;;12.23;;
813;SDS011;389;48.710;9.392;2024-03-22T09:07:40;19.10;;;12.37;;
813;SDS011;389;48.710;9.392;2024-03-22T09:10:06;16.03;;;11.90;;
813;SDS011;389;48.710;9.392;2024-03-22T09:12:32;19.40;;;12.30;;
813;SDS011;389;48.710;9.392;2024-03-22T09:14:57;16.43;;;11.33;;
813;SDS011;389;48.710;9.392;2024-03-22T09:17:23;14.37;;;11.20;;
813;SDS011;389;48.710;9.392;2024-03-22T09:19:48;19.17;;;12.43;;
813;SDS011;389;48.710;9.392;2024-03-22T09:22:14;26.17;;;13.40;;
813;SDS011;389;48.710;9.392;2024-03-22T09:24:42;31.50;;;14.00;;
813;SDS011;389;48.710;9.392;2024-03-22T09:27:08;51.33;;;15.37;;
813;SDS011;389;48.710;9.392;2024-03-22T09:29:35;15.33;;;11.07;;
813;SDS011;389;48.710;9.392;2024-03-22T09:32:02;14.90;;;12.17;;
813;SDS011;389;48.710;9.392;2024-03-22T09:34:28;20.47;;;12.93;;
813;SDS011;389;48.710;9.392;2024-03-22T09:36:57;18.17;;;12.60;;
813;SDS011;389;48.710;9.392;2024-03-22T09:39:23;16.23;;;12.90;;
813;SDS011;389;48.710;9.392;2024-03-22T09:41:50;18.23;;;12.37;;
813;SDS011;389;48.710;9.392;2024-03-22T09:44:17;15.13;;;12.57;;
813;SDS011;389;48.710;9.392;2024-03-22T09:46:44;18.70;;;12.53;;
813;SDS011;389;48.710;9.392;2024-03-22T09:49:11;16.23;;;11.60;;
813;SDS011;389;48.710;9.392;2024-03-22T09:51:41;17.47;;;11.40;;
813;SDS011;389;48.710;9.392;2024-03-22T09:54:08;13.73;;;9.80;;
813;SDS011;389;48.710;9.392;2024-03-22T09:56:35;11.93;;;9.70;;
813;SDS011;389;48.710;9.392;2024-03-22T09:59:05;17.73;;;9.40;;
813;SDS011;389;48.710;9.392;2024-03-22T10:01:34;11.37;;;8.80;;
813;SDS011;389;48.710;9.392;2024-03-22T10:04:00;12.57;;;9.70;;
813;SDS011;389;48.710;9.392;2024-03-22T10:06:26;11.87;;;8.83;;
813;SDS011;389;48.710;9.392;2024-03-22T10:08:51;11.87;;;9.00;;
813;SDS011;389;48.710;9.392;2024-03-22T10:11:18;11.77;;;8.17;;
813;SDS011;389;48.710;9.392;2024-03-22T10:13:43;17.27;;;9.13;;
813;SDS011;389;48.710;9.392;2024-03-22T10:16:09;11.33;;;8.60;;
813;SDS011;389;48.710;9.392;2024-03-22T10:18:35;9.93;;;7.87;;
813;SDS011;389;48.710;9.392;2024-03-22T10:21:01;11.87;;;9.03;;
813;SDS011;389;48.710;9.392;2024-03-22T10:23:27;9.13;;;7.60;;
813;SDS011;389;48.710;9.392;2024-03-22T10:25:59;9.90;;;8.00;;
813;SDS011;389;48.710;9.392;2024-03-22T10:28:25;9.90;;;7.93;;
813;SDS011;389;48.710;9.392;2024-03-22T10:30:52;12.13;;;8.67;;
813;SDS011;389;48.710;9.392;2024-03-22T10:33:18;10.10;;;8.67;;
813;SDS011;389;48.710;9.392;2024-03-22T10:35:45;10.27;;;8.53;;
813;SDS011;389;48.710;9.392;2024-03-22T10:38:14;8.60;;;7.60;;
813;SDS011;389;48.710;9.392;2024-03-22T10:40:44;10.20;;;7.67;;
813;SDS011;389;48.710;9.392;2024-03-22T10:43:16;10.33;;;8.03;;
813;SDS011;389;48.710;9.392;2024-03-22T10:45:42;9.43;;;7.53;;
813;SDS011;389;48.710;9.392;2024-03-22T10:48:11;8.20;;;7.40;;
813;SDS011;389;48.710;9.392;2024-03-22T10:50:41;12.23;;;7.80;;
813;SDS011;389;48.710;9.392;2024-03-22T10:53:11;7.70;;;6.90;;
813;SDS011;389;48.710;9.392;2024-03-22T10:55:44;8.00;;;6.40;;
813;SDS011;389;48.710;9.392;2024-03-22T10:58:15;9.70;;;7.60;;
813;SDS011;389;48.710;9.392;2024-03-22T11:00:42;8.80;;;7.23;;
813;SDS011;389;48.710;9.392;2024-03-22T11:03:09;8.40;;;7.17;;
813;SDS011;389;48.710;9.392;2024-03-22T11:05:34;8.30;;;7.07;;
813;SDS011;389;48.710;9.392;2024-03-22T11:08:09;8.30;;;6.50;;
813;SDS011;389;48.710;9.392;2024-03-22T11:10:35;8.43;;;7.10;;
813;SDS011;389;48.710;9.392;2024-03-22T11:13:02;8.90;;;6.63;;
813;SDS011;389;48.710;9.392;2024-03-22T11:15:32;7.57;;;5.90;;
813;SDS011;389;48.710;9.392;2024-03-22T11:17:58;7.00;;;6.30;;
813;SDS011;389;48.710;9.392;2024-03-22T11:20:25;6.60;;;6.00;;
813;SDS011;389;48.710;9.392;2024-03-22T11:22:51;7.93;;;6.10;;
813;SDS011;389;48.710;9.392;2024-03-22T11:25:17;6.40;;;5.70;;
813;SDS011;389;48.710;9.392;2024-03-22T11:27:44;7.77;;;6.17;;
813;SDS011;389;48.710;9.392;2024-03-22T11:30:10;6.47;;;5.77;;
813;SDS011;389;48.710;9.392;2024-03-22T11:32:36;7.00;;;6.07;;
813;SDS011;389;48.710;9.392;2024-03-22T11:35:07;8.13;;;6.77;;
813;SDS011;389;48.710;9.392;2024-03-22T11:37:35;5.77;;;5.20;;
813;SDS011;389;48.710;9.392;2024-03-22T11:40:01;6.60;;;5.70;;
813;SDS011;389;48.710;9.392;2024-03-22T11:42:30;8.77;;;6.13;;
813;SDS011;389;48.710;9.392;2024-03-22T11:44:57;8.37;;;5.87;;
813;SDS011;389;48.710;9.392;2024-03-22T11:47:23;8.40;;;5.60;;
813;SDS011;389;48.710;9.392;2024-03-22T11:49:49;6.67;;;6.00;;
813;SDS011;389;48.710;9.392;2024-03-22T11:52:15;8.90;;;5.77;;
813;SDS011;389;48.710;9.392;2024-03-22T11:54:40;7.00;;;5.43;;
813;SDS011;389;48.710;9.392;2024-03-22T11:57:07;6.50;;;5.40;;
813;SDS011;389;48.710;9.392;2024-03-22T11:59:34;6.70;;;5.10;;
813;SDS011;389;48.710;9.392;2024-03-22T12:02:00;8.00;;;4.70;;
813;SDS011;389;48.710;9.392;2024-03-22T12:04:25;5.30;;;4.80;;
813;SDS011;389;48.710;9.392;2024-03-22T12:06:51;9.63;;;5.57;;
813;SDS011;389;48.710;9.392;2024-03-22T12:09:18;8.13;;;5.13;;
813;SDS011;389;48.710;9.392;2024-03-22T12:11:43;6.30;;;5.70;;
813;SDS011;389;48.710;9.392;2024-03-22T12:14:10;6.10;;;5.50;;
813;SDS011;389;48.710;9.392;2024-03-22T12:16:35;8.77;;;6.10;;
813;SDS011;389;48.710;9.392;2024-03-22T12:19:01;8.87;;;5.70;;
813;SDS011;389;48.710;9.392;2024-03-22T12:21:28;5.80;;;5.20;;
813;SDS011;389;48.710;9.392;2024-03-22T12:23:53;5.73;;;5.13;;
813;SDS011;389;48.710;9.392;2024-03-22T12:26:19;5.87;;;4.80;;
813;SDS011;389;48.710;9.392;2024-03-22T12:28:45;7.83;;;5.50;;
813;SDS011;389;48.710;9.392;2024-03-22T12:31:10;9.10;;;5.27;;
813;SDS011;389;48.710;9.392;2024-03-22T12:33:36;6.83;;;5.90;;
813;SDS011;389;48.710;9.392;2024-03-22T12:36:02;5.93;;;4.90;;
813;SDS011;389;48.710;9.392;2024-03-22T12:38:29;6.27;;;5.07;;
813;SDS011;389;48.710;9.392;2024-03-22T12:40:54;7.50;;;4.80;;
813;SDS011;389;48.710;9.392;2024-03-22T12:43:20;8.40;;;5.23;;
813;SDS011;389;48.710;9.392;2024-03-22T12:45:45;6.23;;;4.30;;
813;SDS011;389;48.710;9.392;2024-03-22T12:48:11;4.67;;;4.07;;
813;SDS011;389;48.710;9.392;2024-03-22T12:50:36;22.10;;;5.50;;
813;SDS011;389;48.710;9.392;2024-03-22T12:53:02;4.50;;;4.03;;
813;SDS011;389;48.710;9.392;2024-03-22T12:55:29;6.70;;;4.23;;
813;SDS011;389;48.710;9.392;2024-03-22T12:57:56;4.17;;;3.77;;
813;SDS011;389;48.710;9.392;2024-03-22T13:00:22;4.60;;;3.83;;
813;SDS011;389;48.710;9.392;2024-03-22T13:02:48;4.77;;;3.67;;
813;SDS011;389;48.710;9.392;2024-03-22T13:05:13;5.47;;;4.20;;
813;SDS011;389;48.710;9.392;2024-03-22T13:07:41;5.13;;;4.30;;
813;SDS011;389;48.710;9.392;2024-03-22T13:10:07;4.27;;;3.83;;
813;SDS011;389;48.710;9.392;2024-03-22T13:12:33;6.43;;;5.00;;
813;SDS011;389;48.710;9.392;2024-03-22T13:14:59;6.70;;;4.40;;
813;SDS011;389;48.710;9.392;2024-03-22T13:17:29;7.23;;;5.07;;
813;SDS011;389;48.710;9.392;2024-03-22T13:19:55;5.90;;;4.87;;
813;SDS011;389;48.710;9.392;2024-03-22T13:22:20;8.83;;;5.30;;
813;SDS011;389;48.710;9.392;2024-03-22T13:24:46;5.20;;;4.70;;
813;SDS011;389;48.710;9.392;2024-03-22T13:27:12;5.43;;;4.67;;
813;SDS011;389;48.710;9.392;2024-03-22T13:29:39;5.00;;;4.23;;
813;SDS011;389;48.710;9.392;2024-03-22T13:32:05;5.50;;;4.87;;
813;SDS011;389;48.710;9.392;2024-03-22T13:34:32;7.83;;;7.03;;
813;SDS011;389;48.710;9.392;2024-03-22T13:36:59;5.40;;;4.70;;
813;SDS011;389;48.710;9.392;2024-03-22T13:39:24;3.97;;;3.63;;
813;SDS011;389;48.710;9.392;2024-03-22T13:41:50;4.73;;;4.27;;
813;SDS011;389;48.710;9.392;2024-03-22T13:44:15;4.57;;;4.10;;
813;SDS011;389;48.710;9.392;2024-03-22T13:46:41;6.17;;;4.07;;
813;SDS011;389;48.710;9.392;2024-03-22T13:49:12;5.40;;;4.90;;
813;SDS011;389;48.710;9.392;2024-03-22T13:51:43;4.77;;;3.93;;
813;SDS011;389;48.710;9.392;2024-03-22T13:54:09;3.87;;;3.50;;
813;SDS011;389;48.710;9.392;2024-03-22T13:56:36;4.40;;;4.00;;
813;SDS011;389;48.710;9.392;2024-03-22T13:59:03;4.20;;;3.80;;
813;SDS011;389;48.710;9.392;2024-03-22T14:01:30;6.20;;;3.80;;
813;SDS011;389;48.710;9.392;2024-03-22T14:04:05;5.17;;;3.90;;
813;SDS011;389;48.710;9.392;2024-03-22T14:06:35;6.77;;;4.53;;
813;SDS011;389;48.710;9.392;2024-03-22T14:09:03;9.30;;;4.63;;
813;SDS011;389;48.710;9.392;2024-03-22T14:11:29;4.63;;;4.17;;
813;SDS011;389;48.710;9.392;2024-03-22T14:13:55;5.67;;;4.23;;
813;SDS011;389;48.710;9.392;2024-03-22T14:16:21;5.07;;;4.10;;
813;SDS011;389;48.710;9.392;2024-03-22T14:18:47;4.23;;;3.83;;
813;SDS011;389;48.710;9.392;2024-03-22T14:21:14;6.33;;;3.83;;
813;SDS011;389;48.710;9.392;2024-03-22T14:23:44;4.37;;;3.80;;
813;SDS011;389;48.710;9.392;2024-03-22T14:26:13;5.00;;;3.80;;
813;SDS011;389;48.710;9.392;2024-03-22T14:28:39;4.30;;;3.90;;
813;SDS011;389;48.710;9.392;2024-03-22T14:31:08;5.27;;;3.87;;
813;SDS011;389;48.710;9.392;2024-03-22T14:33:35;4.10;;;3.70;;
813;SDS011;389;48.710;9.392;2024-03-22T14:36:01;3.90;;;3.50;;
813;SDS011;389;48.710;9.392;2024-03-22T14:38:28;5.73;;;3.40;;
813;SDS011;389;48.710;9.392;2024-03-22T14:40:54;3.73;;;3.23;;
813;SDS011;389;48.710;9.392;2024-03-22T14:43:23;5.57;;;3.20;;
813;SDS011;389;48.710;9.392;2024-03-22T14:45:50;3.53;;;3.20;;
813;SDS011;389;48.710;9.392;2024-03-22T14:48:18;4.03;;;3.60;;
813;SDS011;389;48.710;9.392;2024-03-22T14:50:48;4.83;;;3.47;;
813;SDS011;389;48.710;9.392;2024-03-22T14:53:14;5.77;;;3.60;;
813;SDS011;389;48.710;9.392;2024-03-22T14:56:02;4.20;;;3.60;;
813;SDS011;389;48.710;9.392;2024-03-22T14:58:36;5.10;;;3.40;;
813;SDS011;389;48.710;9.392;2024-03-22T15:01:02;4.77;;;2.77;;
813;SDS011;389;48.710;9.392;2024-03-22T15:03:30;3.30;;;3.10;;
813;SDS011;389;48.710;9.392;2024-03-22T15:05:56;5.33;;;4.10;;
813;SDS011;389;48.710;9.392;2024-03-22T15:08:24;6.07;;;4.27;;
813;SDS011;389;48.710;9.392;2024-03-22T15:10:51;6.73;;;4.83;;
813;SDS011;389;48.710;9.392;2024-03-22T15:13:17;4.93;;;4.43;;
813;SDS011;389;48.710;9.392;2024-03-22T15:15:43;5.20;;;4.23;;
813;SDS011;389;48.710;9.392;2024-03-22T15:18:25;5.83;;;4.93;;
813;SDS011;389;48.710;9.392;2024-03-22T15:20:53;4.80;;;4.20;;
813;SDS011;389;48.710;9.392;2024-03-22T15:23:19;6.13;;;4.90;;